Norwegian Crown — C6II4 — position and weather

sailwx.info

Track history (hours):
 
Tides and Currents Weather Stations Pressure Air Temp Water Temp Dewpoint Dewpoint Depression Visibility Wind Speed Wind Dir Waves Ship Positions

Norwegian Crown

Operator: Norwegian Cruise Line

Last reported at 2015-Jul-05 23:17 UTC. Time now 2015-Jul-08 06:37 UTC.
Position N 59°28' E 004°49'.

Type: Passenger vessel. MMSI: 308785000.

Date/timePositionNaut miles runAvg speedWind from/ knotsBaromVisibWave heightAir tempDewpointWater temp
2015-Jul-05 23:17N 59°28' E 004°49'6 8.7
2015-Jul-05 22:33N 59°22' E 004°48'9 8.9
2015-Jul-05 21:33N 59°14' E 004°53'10 9.8
2015-Jul-05 20:33N 59°07' E 005°07'1010.4
2015-Jul-05 19:33N 59°06' E 005°27'1010.1
2015-Jul-05 18:33N 58°60' E 005°42'2 1.6
2015-Jul-05 17:33N 58°58' E 005°44'0 0.0
2015-Jul-05 16:33N 58°58' E 005°44'0 0.0
2015-Jul-05 15:33N 58°58' E 005°44'0 0.0
2015-Jul-05 14:33N 58°58' E 005°44'0 0.0
2015-Jul-05 13:33N 58°58' E 005°44'0 0.0
2015-Jul-05 12:33N 58°58' E 005°44'0 0.0
2015-Jul-05 11:33N 58°58' E 005°44'0 0.0
2015-Jul-05 10:33N 58°58' E 005°44'0 0.2
2015-Jul-05 09:33N 58°59' E 005°44'5 5.4
2015-Jul-05 08:33N 58°59' E 005°33'1312.4
2015-Jul-05 07:32N 58°48' E 005°23'1817.4
2015-Jul-05 06:31N 58°30' E 005°14'23216.5
2015-Jul-04 16:30N 54°45' E 003°34'2216.8
2015-Jul-04 15:10N 54°23' E 003°31'2716.9
2015-Jul-04 13:34N 53°56' E 003°25'1716.7
2015-Jul-04 12:34N 53°42' E 003°10'1716.5
2015-Jul-04 11:33N 53°27' E 002°57'1615.9
2015-Jul-04 10:34N 53°12' E 002°47'1515.1
2015-Jul-04 09:34N 52°58' E 002°40'1515.3
2015-Jul-04 08:34N 52°43' E 002°40'1615.8
2015-Jul-04 07:34N 52°27' E 002°41'1716.9
2015-Jul-04 06:33N 52°10' E 002°40'2118.0
2015-Jul-04 05:24N 51°49' E 002°37'1618.3
2015-Jul-04 04:32N 51°37' E 002°20'1818.8
2015-Jul-04 03:34N 51°23' E 002°02'1919.5
2015-Jul-04 02:34N 51°08' E 001°41'2020.0
2015-Jul-04 01:33N 50°51' E 001°24'7815.6
2015-Jul-03 20:33N 50°25' W 000°32'1717.5
2015-Jul-03 19:34N 50°38' W 000°52'1414.4
2015-Jul-03 18:33N 50°46' W 001°11'10 9.8
2015-Jul-03 17:33N 50°52' W 001°22'3 3.1
2015-Jul-03 16:33N 50°54' W 001°26'0 0.0
2015-Jul-03 15:33N 50°54' W 001°26'0 0.0
2015-Jul-03 14:33N 50°54' W 001°26'0 0.0
2015-Jul-03 13:33N 50°54' W 001°26'0 0.0
2015-Jul-03 12:30N 50°54' W 001°26'0 0.0
2015-Jul-03 11:30N 50°54' W 001°26'0 0.0
2015-Jul-03 10:30N 50°54' W 001°26'0 0.0
2015-Jul-03 09:33N 50°54' W 001°26'0 0.0
2015-Jul-03 08:33N 50°54' W 001°26'0 0.0
2015-Jul-03 05:27N 50°54' W 001°26'0 0.0
2015-Jul-03 04:33N 50°54' W 001°26'6 5.8
2015-Jul-03 03:33N 50°50' W 001°19'1110.7
2015-Jul-03 02:33N 50°44' W 001°05'1413.6
2015-Jul-03 01:33N 50°37' W 000°47'1918.7
2015-Jul-03 00:33N 50°33' W 000°18'1716.9
2015-Jul-02 23:33N 50°34' E 000°08'1211.8
2015-Jul-02 22:33N 50°37' E 000°26'10 9.6
2015-Jul-02 21:33N 50°41' E 000°40'1010.4
2015-Jul-02 20:33N 50°47' E 000°53'1211.9
2015-Jul-02 19:33N 50°55' E 001°08'1313.5
2015-Jul-02 18:33N 51°03' E 001°24'1313.0
2015-Jul-02 17:33N 51°11' E 001°41'1111.3
2015-Jul-02 16:33N 51°21' E 001°51'1010.3
2015-Jul-02 15:33N 51°30' E 001°59'10 9.9
2015-Jul-02 14:33N 51°37' E 002°09'10 9.9
2015-Jul-02 13:33N 51°45' E 002°20'10 9.9
2015-Jul-02 12:33N 51°54' E 002°26'1110.8
2015-Jul-02 11:33N 52°04' E 002°32'1212.0
2015-Jul-02 10:33N 52°16' E 002°37'1313.1
2015-Jul-02 09:33N 52°29' E 002°34'1312.7
2015-Jul-02 08:33N 52°41' E 002°38'1414.1
2015-Jul-02 07:33N 52°55' E 002°39'1717.3
2015-Jul-02 06:33N 53°12' E 002°43'5814.2
2015-Jul-02 02:27N 54°02' E 001°51'2014.8
2015-Jul-02 01:07N 54°12' E 001°23'814.7
2015-Jul-02 00:33N 54°17' E 001°11'1514.7
2015-Jul-01 23:33N 54°24' E 000°49'1514.7
2015-Jul-01 22:33N 54°30' E 000°26'1514.9
2015-Jul-01 21:33N 54°37' E 000°03'1515.1
2015-Jul-01 20:33N 54°44' W 000°20'1615.4
2015-Jul-01 19:33N 54°51' W 000°44'1515.4
2015-Jul-01 18:33N 54°58' W 001°08'11 5.5
2015-Jul-01 16:33N 54°60' W 001°27'0 0.0
2015-Jul-01 15:33N 54°60' W 001°27'0 0.0
2015-Jul-01 14:27N 54°60' W 001°27'0 0.0
2015-Jul-01 13:30N 54°60' W 001°27'0 0.0
2015-Jul-01 12:33N 54°60' W 001°27'0 0.0
2015-Jul-01 11:33N 54°60' W 001°27'0 0.0
2015-Jul-01 10:33N 54°60' W 001°27'0 0.0
2015-Jul-01 09:33N 54°60' W 001°27'0 0.0
2015-Jul-01 08:33N 54°60' W 001°27'1 0.8
2015-Jul-01 07:33N 55°00' W 001°26'10 9.9
2015-Jul-01 06:31N 55°08' W 001°15'1313.6
2015-Jul-01 05:33N 55°21' W 001°12'1514.9
2015-Jul-01 04:32N 55°36' W 001°13'1616.6
2015-Jul-01 03:33N 55°53' W 001°16'1716.5
2015-Jul-01 02:33N 56°09' W 001°18'2016.5
2015-Jul-01 01:21N 56°29' W 001°16'1716.8
2015-Jul-01 00:22N 56°46' W 001°17'1416.8
2015-Jun-30 23:33N 56°59' W 001°18'1717.3
2015-Jun-30 22:32N 57°17' W 001°19'1717.6
2015-Jun-30 21:33N 57°34' W 001°20'1716.9
2015-Jun-30 20:33N 57°49' W 001°36'1717.1
2015-Jun-30 19:33N 57°49' W 002°08'30 1.7
2015-Jun-30 02:04N 58°17' W 002°31'815.9
2015-Jun-30 01:33N 58°23' W 002°20'37 1.3
2015-Jun-28 20:33N 58°59' W 002°29'1211.9
2015-Jun-28 19:33N 59°01' W 002°52'4 3.5
2015-Jun-28 18:34N 58°60' W 002°58'0 0.0
2015-Jun-28 17:34N 58°60' W 002°58'0 0.0
2015-Jun-28 16:33N 58°60' W 002°58'0 0.0
2015-Jun-28 15:33N 58°60' W 002°58'0 0.0
2015-Jun-28 14:33N 58°60' W 002°58'0 0.0
2015-Jun-28 13:33N 58°60' W 002°58'0 0.0
2015-Jun-28 12:34N 58°60' W 002°58'0 0.0
2015-Jun-28 11:34N 58°60' W 002°58'0 0.0
2015-Jun-28 10:33N 58°60' W 002°58'0 0.0
2015-Jun-28 09:33N 58°60' W 002°58'0 0.0
2015-Jun-28 08:31N 58°60' W 002°58'0 0.0
2015-Jun-28 07:34N 58°60' W 002°58'0 0.3
2015-Jun-28 06:33N 59°00' W 002°58'8 8.4
2015-Jun-28 05:33N 59°00' W 002°42'8 8.2
2015-Jun-28 04:33N 58°52' W 002°38'1111.5
2015-Jun-28 03:33N 58°43' W 002°53'1514.6
2015-Jun-28 02:33N 58°45' W 003°21'1615.9
2015-Jun-28 01:33N 58°49' W 003°51'1515.5
2015-Jun-28 00:33N 58°50' W 004°20'1515.4
2015-Jun-27 23:33N 58°51' W 004°50'73 4.2
2015-Jun-27 06:14N 57°53' W 006°16'12315.6
2015-Jun-26 22:21N 55°54' W 007°13'1417.6
2015-Jun-26 21:33N 55°41' W 007°02'1616.4
2015-Jun-26 20:33N 55°30' W 006°40'1817.8
2015-Jun-26 19:33N 55°26' W 006°10'1616.5
2015-Jun-26 18:33N 55°13' W 005°51'1616.3
2015-Jun-26 17:33N 54°59' W 005°37'1515.5
2015-Jun-26 16:33N 54°43' W 005°36'1111.1
2015-Jun-26 15:33N 54°38' W 005°53'1 0.1
2015-Jun-26 05:33N 54°38' W 005°53'9 9.2
2015-Jun-26 04:34N 54°43' W 005°39'9 8.8
2015-Jun-26 03:33N 54°42' W 005°24'10 9.8
2015-Jun-26 02:33N 54°34' W 005°15'8 8.3
2015-Jun-26 01:33N 54°25' W 005°13'9 8.7
2015-Jun-26 00:33N 54°17' W 005°12'9 8.7
2015-Jun-25 23:33N 54°08' W 005°14'  
Track history (hours):
 
Tides and Currents Weather Stations Pressure Air Temp Water Temp Dewpoint Dewpoint Depression Visibility Wind Speed Wind Dir Waves Ship Positions

Norwegian Crown

Operator: Norwegian Cruise Line

Last reported at 2015-Jul-05 23:17 UTC. Time now 2015-Jul-08 06:38 UTC.
Position N 59°28' E 004°49'.

Type: Passenger vessel. MMSI: 308785000.

Date/timePositionNaut miles runAvg speedWind from/ knotsBaromVisibWave heightAir tempDewpointWater temp
2015-Jul-05 23:17N 59°28' E 004°49'6 8.7
2015-Jul-05 22:33N 59°22' E 004°48'9 8.9
2015-Jul-05 21:33N 59°14' E 004°53'10 9.8
2015-Jul-05 20:33N 59°07' E 005°07'1010.4
2015-Jul-05 19:33N 59°06' E 005°27'1010.1
2015-Jul-05 18:33N 58°60' E 005°42'2 1.6
2015-Jul-05 17:33N 58°58' E 005°44'0 0.0
2015-Jul-05 16:33N 58°58' E 005°44'0 0.0
2015-Jul-05 15:33N 58°58' E 005°44'0 0.0
2015-Jul-05 14:33N 58°58' E 005°44'0 0.0
2015-Jul-05 13:33N 58°58' E 005°44'0 0.0
2015-Jul-05 12:33N 58°58' E 005°44'0 0.0
2015-Jul-05 11:33N 58°58' E 005°44'0 0.0
2015-Jul-05 10:33N 58°58' E 005°44'0 0.2
2015-Jul-05 09:33N 58°59' E 005°44'5 5.4
2015-Jul-05 08:33N 58°59' E 005°33'1312.4
2015-Jul-05 07:32N 58°48' E 005°23'1817.4
2015-Jul-05 06:31N 58°30' E 005°14'23216.5
2015-Jul-04 16:30N 54°45' E 003°34'2216.8
2015-Jul-04 15:10N 54°23' E 003°31'2716.9
2015-Jul-04 13:34N 53°56' E 003°25'1716.7
2015-Jul-04 12:34N 53°42' E 003°10'1716.5
2015-Jul-04 11:33N 53°27' E 002°57'1615.9
2015-Jul-04 10:34N 53°12' E 002°47'1515.1
2015-Jul-04 09:34N 52°58' E 002°40'1515.3
2015-Jul-04 08:34N 52°43' E 002°40'1615.8
2015-Jul-04 07:34N 52°27' E 002°41'1716.9
2015-Jul-04 06:33N 52°10' E 002°40'2118.0
2015-Jul-04 05:24N 51°49' E 002°37'1618.3
2015-Jul-04 04:32N 51°37' E 002°20'1818.8
2015-Jul-04 03:34N 51°23' E 002°02'1919.5
2015-Jul-04 02:34N 51°08' E 001°41'2020.0
2015-Jul-04 01:33N 50°51' E 001°24'7815.6
2015-Jul-03 20:33N 50°25' W 000°32'1717.5
2015-Jul-03 19:34N 50°38' W 000°52'1414.4
2015-Jul-03 18:33N 50°46' W 001°11'10 9.8
2015-Jul-03 17:33N 50°52' W 001°22'3 3.1
2015-Jul-03 16:33N 50°54' W 001°26'0 0.0
2015-Jul-03 15:33N 50°54' W 001°26'0 0.0
2015-Jul-03 14:33N 50°54' W 001°26'0 0.0
2015-Jul-03 13:33N 50°54' W 001°26'0 0.0
2015-Jul-03 12:30N 50°54' W 001°26'0 0.0
2015-Jul-03 11:30N 50°54' W 001°26'0 0.0
2015-Jul-03 10:30N 50°54' W 001°26'0 0.0
2015-Jul-03 09:33N 50°54' W 001°26'0 0.0
2015-Jul-03 08:33N 50°54' W 001°26'0 0.0
2015-Jul-03 05:27N 50°54' W 001°26'0 0.0
2015-Jul-03 04:33N 50°54' W 001°26'6 5.8
2015-Jul-03 03:33N 50°50' W 001°19'1110.7
2015-Jul-03 02:33N 50°44' W 001°05'1413.6
2015-Jul-03 01:33N 50°37' W 000°47'1918.7
2015-Jul-03 00:33N 50°33' W 000°18'1716.9
2015-Jul-02 23:33N 50°34' E 000°08'1211.8
2015-Jul-02 22:33N 50°37' E 000°26'10 9.6
2015-Jul-02 21:33N 50°41' E 000°40'1010.4
2015-Jul-02 20:33N 50°47' E 000°53'1211.9
2015-Jul-02 19:33N 50°55' E 001°08'1313.5
2015-Jul-02 18:33N 51°03' E 001°24'1313.0
2015-Jul-02 17:33N 51°11' E 001°41'1111.3
2015-Jul-02 16:33N 51°21' E 001°51'1010.3
2015-Jul-02 15:33N 51°30' E 001°59'10 9.9
2015-Jul-02 14:33N 51°37' E 002°09'10 9.9
2015-Jul-02 13:33N 51°45' E 002°20'10 9.9
2015-Jul-02 12:33N 51°54' E 002°26'1110.8
2015-Jul-02 11:33N 52°04' E 002°32'1212.0
2015-Jul-02 10:33N 52°16' E 002°37'1313.1
2015-Jul-02 09:33N 52°29' E 002°34'1312.7
2015-Jul-02 08:33N 52°41' E 002°38'1414.1
2015-Jul-02 07:33N 52°55' E 002°39'1717.3
2015-Jul-02 06:33N 53°12' E 002°43'5814.2
2015-Jul-02 02:27N 54°02' E 001°51'2014.8
2015-Jul-02 01:07N 54°12' E 001°23'814.7
2015-Jul-02 00:33N 54°17' E 001°11'1514.7
2015-Jul-01 23:33N 54°24' E 000°49'1514.7
2015-Jul-01 22:33N 54°30' E 000°26'1514.9
2015-Jul-01 21:33N 54°37' E 000°03'1515.1
2015-Jul-01 20:33N 54°44' W 000°20'1615.4
2015-Jul-01 19:33N 54°51' W 000°44'1515.4
2015-Jul-01 18:33N 54°58' W 001°08'11 5.5
2015-Jul-01 16:33N 54°60' W 001°27'0 0.0
2015-Jul-01 15:33N 54°60' W 001°27'0 0.0
2015-Jul-01 14:27N 54°60' W 001°27'0 0.0
2015-Jul-01 13:30N 54°60' W 001°27'0 0.0
2015-Jul-01 12:33N 54°60' W 001°27'0 0.0
2015-Jul-01 11:33N 54°60' W 001°27'0 0.0
2015-Jul-01 10:33N 54°60' W 001°27'0 0.0
2015-Jul-01 09:33N 54°60' W 001°27'0 0.0
2015-Jul-01 08:33N 54°60' W 001°27'1 0.8
2015-Jul-01 07:33N 55°00' W 001°26'10 9.9
2015-Jul-01 06:31N 55°08' W 001°15'1313.6
2015-Jul-01 05:33N 55°21' W 001°12'1514.9
2015-Jul-01 04:32N 55°36' W 001°13'1616.6
2015-Jul-01 03:33N 55°53' W 001°16'1716.5
2015-Jul-01 02:33N 56°09' W 001°18'2016.5
2015-Jul-01 01:21N 56°29' W 001°16'1716.8
2015-Jul-01 00:22N 56°46' W 001°17'1416.8
2015-Jun-30 23:33N 56°59' W 001°18'1717.3
2015-Jun-30 22:32N 57°17' W 001°19'1717.6
2015-Jun-30 21:33N 57°34' W 001°20'1716.9
2015-Jun-30 20:33N 57°49' W 001°36'1717.1
2015-Jun-30 19:33N 57°49' W 002°08'30 1.7
2015-Jun-30 02:04N 58°17' W 002°31'815.9
2015-Jun-30 01:33N 58°23' W 002°20'37 1.3
2015-Jun-28 20:33N 58°59' W 002°29'1211.9
2015-Jun-28 19:33N 59°01' W 002°52'4 3.5
2015-Jun-28 18:34N 58°60' W 002°58'0 0.0
2015-Jun-28 17:34N 58°60' W 002°58'0 0.0
2015-Jun-28 16:33N 58°60' W 002°58'0 0.0
2015-Jun-28 15:33N 58°60' W 002°58'0 0.0
2015-Jun-28 14:33N 58°60' W 002°58'0 0.0
2015-Jun-28 13:33N 58°60' W 002°58'0 0.0
2015-Jun-28 12:34N 58°60' W 002°58'0 0.0
2015-Jun-28 11:34N 58°60' W 002°58'0 0.0
2015-Jun-28 10:33N 58°60' W 002°58'0 0.0
2015-Jun-28 09:33N 58°60' W 002°58'0 0.0
2015-Jun-28 08:31N 58°60' W 002°58'0 0.0
2015-Jun-28 07:34N 58°60' W 002°58'0 0.3
2015-Jun-28 06:33N 59°00' W 002°58'8 8.4
2015-Jun-28 05:33N 59°00' W 002°42'8 8.2
2015-Jun-28 04:33N 58°52' W 002°38'1111.5
2015-Jun-28 03:33N 58°43' W 002°53'1514.6
2015-Jun-28 02:33N 58°45' W 003°21'1615.9
2015-Jun-28 01:33N 58°49' W 003°51'1515.5
2015-Jun-28 00:33N 58°50' W 004°20'1515.4
2015-Jun-27 23:33N 58°51' W 004°50'73 4.2
2015-Jun-27 06:14N 57°53' W 006°16'12315.6
2015-Jun-26 22:21N 55°54' W 007°13'1417.6
2015-Jun-26 21:33N 55°41' W 007°02'1616.4
2015-Jun-26 20:33N 55°30' W 006°40'1817.8
2015-Jun-26 19:33N 55°26' W 006°10'1616.5
2015-Jun-26 18:33N 55°13' W 005°51'1616.3
2015-Jun-26 17:33N 54°59' W 005°37'1515.5
2015-Jun-26 16:33N 54°43' W 005°36'1111.1
2015-Jun-26 15:33N 54°38' W 005°53'1 0.1
2015-Jun-26 05:33N 54°38' W 005°53'9 9.2
2015-Jun-26 04:34N 54°43' W 005°39'9 8.8
2015-Jun-26 03:33N 54°42' W 005°24'10 9.8
2015-Jun-26 02:33N 54°34' W 005°15'8 8.3
2015-Jun-26 01:33N 54°25' W 005°13'9 8.7
2015-Jun-26 00:33N 54°17' W 005°12'9 8.7
2015-Jun-25 23:33N 54°08' W 005°14'  

Dump ship's entire track history